Yokota Air Base
RJTY : now visible

Airfield :











YOU CAN JOIN US ON...

 
LOGIN :

Register | Disclaimer

   EN    FR    IT 

 









Legend :    VFR   Marginal VFR   IFR   Intensive IFR   Very Intensive IFR
Visi :
Ceiling :
>= 8 km
>= 3000ft
5 to 8 km
1000 to 3000 ft
1500m to 5 km
500 to 1000 ft
800 to 1500m
200 to 500 ft
< 800m
< 200 ft
Symbols :   Thunderstorms  Fog  Heavy snow  Heavy precipitations  Wind > 20 kt






- Airport Elevation : 463 ft
- IATA code : OKO


RJTY - Yokota Air Base

CURRENT METAR :
  • 310956Z AUTO 19011KT 10SM OVC120 20/13 A3009 RMK AO2 SLP190 T02020134 FZRANO $

EXPIRED METARs :
  • 310856Z AUTO 21011G20KT 10SM BKN120 21/13 A3007 RMK AO2 SLP183 T02110130 55001 FZRANO $
  • 310756Z AUTO 20013KT 10SM CLR 21/14 A3007 RMK AO2 SLP183 T02140141 FZRANO $

TAF AMD TAF RJTY
Valid from the 31 at 09:00 until the 01 at 11:00 UTC


310913Z 3109/0111 20012G18KT 9999 BKN150 QNH3007INS
BECMG 3115/3116 24006KT 9999 FEW150 QNH3007INS
BECMG 3120/3121 15006KT 9999 BKN035 QNH3000INS
BECMG 0102/0103 18006KT 9000 -SHRA BKN025 BKN080 QNH2995INS
BECMG 0108/0109 15009KT 9999 NSW BKN035 BKN100 QNH2998INS TX21/3109Z TN16/3121Z
RJJJ FIR / Asia



MET'MAP, your aeronautical weather chart ! - Copyright ORBIFLY December 2007 - Disclaimer

ORBIFLY MET'MAP TEAM :

Programming & Development : Alexandra Zaïnal
Concept & original design : Baudouin d'Aumeries
Assistance for programming : Marc-Olivier Méhu
Technical & hardware support : Manuel Goepfert

Contact : metmap@orbifly.com




SOURCES & CREDITS :

   NOAA       Earth
Advisory